sensor_id;sensor_type;location;lat;lon;timestamp;temperature;humidity
698;DHT22;331;48.414;9.938;2022-10-22T00:00:27;14.10;99.90
698;DHT22;331;48.414;9.938;2022-10-22T00:02:55;14.10;99.90
698;DHT22;331;48.414;9.938;2022-10-22T00:05:22;14.10;99.90
698;DHT22;331;48.414;9.938;2022-10-22T00:07:49;14.20;99.90
698;DHT22;331;48.414;9.938;2022-10-22T00:10:15;14.10;99.90
698;DHT22;331;48.414;9.938;2022-10-22T00:12:43;14.10;99.90
698;DHT22;331;48.414;9.938;2022-10-22T00:15:10;14.10;99.90
698;DHT22;331;48.414;9.938;2022-10-22T00:17:37;14.00;99.90
698;DHT22;331;48.414;9.938;2022-10-22T00:20:06;14.00;99.90
698;DHT22;331;48.414;9.938;2022-10-22T00:22:33;14.00;99.90
698;DHT22;331;48.414;9.938;2022-10-22T00:25:00;14.00;99.90
698;DHT22;331;48.414;9.938;2022-10-22T00:27:26;14.00;99.90
698;DHT22;331;48.414;9.938;2022-10-22T00:29:53;14.00;99.90
698;DHT22;331;48.414;9.938;2022-10-22T00:32:20;13.90;99.90
698;DHT22;331;48.414;9.938;2022-10-22T00:34:47;13.90;99.90
698;DHT22;331;48.414;9.938;2022-10-22T00:37:15;13.90;99.90
698;DHT22;331;48.414;9.938;2022-10-22T00:39:42;13.90;99.90
698;DHT22;331;48.414;9.938;2022-10-22T00:42:09;13.90;99.90
698;DHT22;331;48.414;9.938;2022-10-22T00:45:00;13.90;99.90
698;DHT22;331;48.414;9.938;2022-10-22T00:47:30;13.90;99.90
698;DHT22;331;48.414;9.938;2022-10-22T00:49:57;13.90;99.90
698;DHT22;331;48.414;9.938;2022-10-22T00:52:25;13.90;99.90
698;DHT22;331;48.414;9.938;2022-10-22T00:54:52;13.90;99.90
698;DHT22;331;48.414;9.938;2022-10-22T00:57:20;13.90;99.90
698;DHT22;331;48.414;9.938;2022-10-22T00:59:47;13.80;99.90
698;DHT22;331;48.414;9.938;2022-10-22T01:02:14;13.80;99.90
698;DHT22;331;48.414;9.938;2022-10-22T01:04:41;13.80;99.90
698;DHT22;331;48.414;9.938;2022-10-22T01:07:09;13.80;99.90
698;DHT22;331;48.414;9.938;2022-10-22T01:09:39;13.80;99.90
698;DHT22;331;48.414;9.938;2022-10-22T01:12:09;13.80;99.90
698;DHT22;331;48.414;9.938;2022-10-22T01:14:40;13.80;99.90
698;DHT22;331;48.414;9.938;2022-10-22T01:17:13;13.80;99.90
698;DHT22;331;48.414;9.938;2022-10-22T01:19:48;13.80;99.90
698;DHT22;331;48.414;9.938;2022-10-22T01:22:19;13.80;99.90
698;DHT22;331;48.414;9.938;2022-10-22T01:27:37;13.80;99.90
698;DHT22;331;48.414;9.938;2022-10-22T01:30:08;13.70;99.90
698;DHT22;331;48.414;9.938;2022-10-22T01:32:36;13.70;99.90
698;DHT22;331;48.414;9.938;2022-10-22T01:35:04;13.70;99.90
698;DHT22;331;48.414;9.938;2022-10-22T01:37:33;13.70;99.90
698;DHT22;331;48.414;9.938;2022-10-22T01:40:03;13.70;99.90
698;DHT22;331;48.414;9.938;2022-10-22T01:42:31;13.70;99.90
698;DHT22;331;48.414;9.938;2022-10-22T01:44:57;13.60;99.90
698;DHT22;331;48.414;9.938;2022-10-22T01:47:29;13.60;99.90
698;DHT22;331;48.414;9.938;2022-10-22T01:50:02;13.60;99.90
698;DHT22;331;48.414;9.938;2022-10-22T01:52:35;13.60;99.90
698;DHT22;331;48.414;9.938;2022-10-22T01:55:08;13.60;99.90
698;DHT22;331;48.414;9.938;2022-10-22T01:57:41;13.60;99.90
698;DHT22;331;48.414;9.938;2022-10-22T02:00:12;13.60;99.90
698;DHT22;331;48.414;9.938;2022-10-22T02:02:42;13.60;99.90
698;DHT22;331;48.414;9.938;2022-10-22T02:05:13;13.60;99.90
698;DHT22;331;48.414;9.938;2022-10-22T02:07:42;13.60;99.90
698;DHT22;331;48.414;9.938;2022-10-22T02:10:13;13.60;99.90
698;DHT22;331;48.414;9.938;2022-10-22T02:12:40;13.50;99.90
698;DHT22;331;48.414;9.938;2022-10-22T02:15:08;13.50;99.90
698;DHT22;331;48.414;9.938;2022-10-22T02:17:36;13.50;99.90
698;DHT22;331;48.414;9.938;2022-10-22T02:20:06;13.50;99.90
698;DHT22;331;48.414;9.938;2022-10-22T02:22:37;13.50;99.90
698;DHT22;331;48.414;9.938;2022-10-22T02:25:06;13.50;99.90
698;DHT22;331;48.414;9.938;2022-10-22T02:27:34;13.50;99.90
698;DHT22;331;48.414;9.938;2022-10-22T02:30:06;13.50;99.90
698;DHT22;331;48.414;9.938;2022-10-22T02:32:34;13.50;99.90
698;DHT22;331;48.414;9.938;2022-10-22T02:35:02;13.50;99.90
698;DHT22;331;48.414;9.938;2022-10-22T02:37:31;13.40;99.90
698;DHT22;331;48.414;9.938;2022-10-22T02:39:58;13.40;99.90
698;DHT22;331;48.414;9.938;2022-10-22T02:42:24;13.40;99.90
698;DHT22;331;48.414;9.938;2022-10-22T02:44:51;13.40;99.90
698;DHT22;331;48.414;9.938;2022-10-22T02:47:18;13.40;99.90
698;DHT22;331;48.414;9.938;2022-10-22T02:49:45;13.40;99.90
698;DHT22;331;48.414;9.938;2022-10-22T02:52:12;13.40;99.90
698;DHT22;331;48.414;9.938;2022-10-22T02:54:40;13.40;99.90
698;DHT22;331;48.414;9.938;2022-10-22T02:57:07;13.40;99.90
698;DHT22;331;48.414;9.938;2022-10-22T02:59:33;13.40;99.90
698;DHT22;331;48.414;9.938;2022-10-22T03:02:00;13.40;99.90
698;DHT22;331;48.414;9.938;2022-10-22T03:04:27;13.40;99.90
698;DHT22;331;48.414;9.938;2022-10-22T03:06:54;13.40;99.90
698;DHT22;331;48.414;9.938;2022-10-22T03:09:21;13.40;99.90
698;DHT22;331;48.414;9.938;2022-10-22T03:11:49;13.40;99.90
698;DHT22;331;48.414;9.938;2022-10-22T03:14:15;13.30;99.90
698;DHT22;331;48.414;9.938;2022-10-22T03:16:42;13.30;99.90
698;DHT22;331;48.414;9.938;2022-10-22T03:19:09;13.30;99.90
698;DHT22;331;48.414;9.938;2022-10-22T03:21:36;13.30;99.90
698;DHT22;331;48.414;9.938;2022-10-22T03:24:05;13.30;99.90
698;DHT22;331;48.414;9.938;2022-10-22T03:26:33;13.30;99.90
698;DHT22;331;48.414;9.938;2022-10-22T03:29:01;13.30;99.90
698;DHT22;331;48.414;9.938;2022-10-22T03:31:28;13.30;99.90
698;DHT22;331;48.414;9.938;2022-10-22T03:33:55;13.30;99.90
698;DHT22;331;48.414;9.938;2022-10-22T03:36:22;13.20;99.90
698;DHT22;331;48.414;9.938;2022-10-22T03:38:48;13.20;99.90
698;DHT22;331;48.414;9.938;2022-10-22T03:41:15;13.20;99.90
698;DHT22;331;48.414;9.938;2022-10-22T03:43:42;13.20;99.90
698;DHT22;331;48.414;9.938;2022-10-22T03:46:15;13.20;99.90
698;DHT22;331;48.414;9.938;2022-10-22T03:48:42;13.20;99.90
698;DHT22;331;48.414;9.938;2022-10-22T03:51:09;13.20;99.90
698;DHT22;331;48.414;9.938;2022-10-22T03:53:35;13.20;99.90
698;DHT22;331;48.414;9.938;2022-10-22T03:56:05;13.20;99.90
698;DHT22;331;48.414;9.938;2022-10-22T03:58:32;13.20;99.90
698;DHT22;331;48.414;9.938;2022-10-22T04:01:02;13.20;99.90
698;DHT22;331;48.414;9.938;2022-10-22T04:03:31;13.20;99.90
698;DHT22;331;48.414;9.938;2022-10-22T04:05:59;13.20;99.90
698;DHT22;331;48.414;9.938;2022-10-22T04:08:26;13.10;99.90
698;DHT22;331;48.414;9.938;2022-10-22T04:10:53;13.10;99.90
698;DHT22;331;48.414;9.938;2022-10-22T04:13:20;13.10;99.90
698;DHT22;331;48.414;9.938;2022-10-22T04:15:46;13.10;99.90
698;DHT22;331;48.414;9.938;2022-10-22T04:18:13;13.10;99.90
698;DHT22;331;48.414;9.938;2022-10-22T04:20:41;13.10;99.90
698;DHT22;331;48.414;9.938;2022-10-22T04:23:08;13.10;99.90
698;DHT22;331;48.414;9.938;2022-10-22T04:25:35;13.10;99.90
698;DHT22;331;48.414;9.938;2022-10-22T04:28:02;13.10;99.90
698;DHT22;331;48.414;9.938;2022-10-22T04:30:28;13.10;99.90
698;DHT22;331;48.414;9.938;2022-10-22T04:32:55;13.10;99.90
698;DHT22;331;48.414;9.938;2022-10-22T04:35:22;13.20;99.90
698;DHT22;331;48.414;9.938;2022-10-22T04:37:50;13.10;99.90
698;DHT22;331;48.414;9.938;2022-10-22T04:40:17;13.10;99.90
698;DHT22;331;48.414;9.938;2022-10-22T04:42:44;13.10;99.90
698;DHT22;331;48.414;9.938;2022-10-22T04:45:11;13.10;99.90
698;DHT22;331;48.414;9.938;2022-10-22T04:47:37;13.10;99.90
698;DHT22;331;48.414;9.938;2022-10-22T04:50:05;13.10;99.90
698;DHT22;331;48.414;9.938;2022-10-22T04:52:31;13.10;99.90
698;DHT22;331;48.414;9.938;2022-10-22T04:55:00;13.00;99.90
698;DHT22;331;48.414;9.938;2022-10-22T04:57:28;13.00;99.90
698;DHT22;331;48.414;9.938;2022-10-22T04:59:54;13.00;99.90
698;DHT22;331;48.414;9.938;2022-10-22T05:02:21;13.10;99.90
698;DHT22;331;48.414;9.938;2022-10-22T05:04:48;13.00;99.90
698;DHT22;331;48.414;9.938;2022-10-22T05:07:15;13.00;99.90
698;DHT22;331;48.414;9.938;2022-10-22T05:09:42;13.00;99.90
698;DHT22;331;48.414;9.938;2022-10-22T05:12:10;13.00;99.90
698;DHT22;331;48.414;9.938;2022-10-22T05:14:37;13.00;99.90
698;DHT22;331;48.414;9.938;2022-10-22T05:17:04;13.00;99.90
698;DHT22;331;48.414;9.938;2022-10-22T05:19:31;13.00;99.90
698;DHT22;331;48.414;9.938;2022-10-22T05:21:58;12.90;99.90
698;DHT22;331;48.414;9.938;2022-10-22T05:24:25;12.90;99.90
698;DHT22;331;48.414;9.938;2022-10-22T05:26:53;13.00;99.90
698;DHT22;331;48.414;9.938;2022-10-22T05:29:22;12.90;99.90
698;DHT22;331;48.414;9.938;2022-10-22T05:31:49;13.00;99.90
698;DHT22;331;48.414;9.938;2022-10-22T05:34:16;12.90;99.90
698;DHT22;331;48.414;9.938;2022-10-22T05:36:43;13.00;99.90
698;DHT22;331;48.414;9.938;2022-10-22T05:39:09;12.90;99.90
698;DHT22;331;48.414;9.938;2022-10-22T05:41:36;12.90;99.90
698;DHT22;331;48.414;9.938;2022-10-22T05:44:03;13.00;99.90
698;DHT22;331;48.414;9.938;2022-10-22T05:46:33;12.90;99.90
698;DHT22;331;48.414;9.938;2022-10-22T05:49:01;12.90;99.90
698;DHT22;331;48.414;9.938;2022-10-22T05:51:29;12.90;99.90
698;DHT22;331;48.414;9.938;2022-10-22T05:53:57;12.90;99.90
698;DHT22;331;48.414;9.938;2022-10-22T05:56:25;12.90;99.90
698;DHT22;331;48.414;9.938;2022-10-22T05:58:52;12.90;99.90
698;DHT22;331;48.414;9.938;2022-10-22T06:01:20;12.90;99.90
698;DHT22;331;48.414;9.938;2022-10-22T06:03:48;12.90;99.90
698;DHT22;331;48.414;9.938;2022-10-22T06:06:16;12.90;99.90
698;DHT22;331;48.414;9.938;2022-10-22T06:08:44;12.90;99.90
698;DHT22;331;48.414;9.938;2022-10-22T06:11:11;12.90;99.90
698;DHT22;331;48.414;9.938;2022-10-22T06:13:38;12.90;99.90
698;DHT22;331;48.414;9.938;2022-10-22T06:16:05;12.90;99.90
698;DHT22;331;48.414;9.938;2022-10-22T06:18:32;12.90;99.90
698;DHT22;331;48.414;9.938;2022-10-22T06:21:04;12.90;99.90
698;DHT22;331;48.414;9.938;2022-10-22T06:23:31;12.90;99.90
698;DHT22;331;48.414;9.938;2022-10-22T06:25:58;12.80;99.90
698;DHT22;331;48.414;9.938;2022-10-22T06:28:25;12.80;99.90
698;DHT22;331;48.414;9.938;2022-10-22T06:30:52;12.80;99.90
698;DHT22;331;48.414;9.938;2022-10-22T06:33:19;12.80;99.90
698;DHT22;331;48.414;9.938;2022-10-22T06:35:45;12.90;99.90
698;DHT22;331;48.414;9.938;2022-10-22T06:38:14;12.90;99.90
698;DHT22;331;48.414;9.938;2022-10-22T06:40:41;13.00;99.90
698;DHT22;331;48.414;9.938;2022-10-22T06:43:09;13.00;99.90
698;DHT22;331;48.414;9.938;2022-10-22T06:45:36;13.00;99.90
698;DHT22;331;48.414;9.938;2022-10-22T06:48:03;13.00;99.90
698;DHT22;331;48.414;9.938;2022-10-22T06:50:30;13.00;99.90
698;DHT22;331;48.414;9.938;2022-10-22T06:52:57;13.00;99.90
698;DHT22;331;48.414;9.938;2022-10-22T06:55:25;13.10;99.90
698;DHT22;331;48.414;9.938;2022-10-22T06:57:53;13.10;99.90
698;DHT22;331;48.414;9.938;2022-10-22T07:00:20;13.00;99.90
698;DHT22;331;48.414;9.938;2022-10-22T07:02:49;13.00;99.90
698;DHT22;331;48.414;9.938;2022-10-22T07:05:17;13.00;99.90
698;DHT22;331;48.414;9.938;2022-10-22T07:07:43;13.00;99.90
698;DHT22;331;48.414;9.938;2022-10-22T07:10:10;13.10;99.90
698;DHT22;331;48.414;9.938;2022-10-22T07:12:38;13.00;99.90
698;DHT22;331;48.414;9.938;2022-10-22T07:15:05;13.00;99.90
698;DHT22;331;48.414;9.938;2022-10-22T07:17:32;13.10;99.90
698;DHT22;331;48.414;9.938;2022-10-22T07:19:59;13.00;99.90
698;DHT22;331;48.414;9.938;2022-10-22T07:22:26;13.00;99.90
698;DHT22;331;48.414;9.938;2022-10-22T07:24:53;13.00;99.90
698;DHT22;331;48.414;9.938;2022-10-22T07:27:19;13.10;99.90
698;DHT22;331;48.414;9.938;2022-10-22T07:29:48;13.00;99.90
698;DHT22;331;48.414;9.938;2022-10-22T07:32:16;13.00;99.90
698;DHT22;331;48.414;9.938;2022-10-22T07:34:43;13.00;99.90
698;DHT22;331;48.414;9.938;2022-10-22T07:37:10;13.00;99.90
698;DHT22;331;48.414;9.938;2022-10-22T07:39:36;13.00;99.90
698;DHT22;331;48.414;9.938;2022-10-22T07:42:03;13.10;99.90
698;DHT22;331;48.414;9.938;2022-10-22T07:44:30;13.10;99.90
698;DHT22;331;48.414;9.938;2022-10-22T07:46:58;13.10;99.90
698;DHT22;331;48.414;9.938;2022-10-22T07:49:25;13.10;99.90
698;DHT22;331;48.414;9.938;2022-10-22T07:51:52;13.00;99.90
698;DHT22;331;48.414;9.938;2022-10-22T07:54:18;13.00;99.90
698;DHT22;331;48.414;9.938;2022-10-22T07:56:45;13.10;99.90
698;DHT22;331;48.414;9.938;2022-10-22T07:59:12;13.00;99.90
698;DHT22;331;48.414;9.938;2022-10-22T08:01:39;13.00;99.90
698;DHT22;331;48.414;9.938;2022-10-22T08:04:07;13.00;99.90
698;DHT22;331;48.414;9.938;2022-10-22T08:06:34;13.00;99.90
698;DHT22;331;48.414;9.938;2022-10-22T08:09:01;13.00;99.90
698;DHT22;331;48.414;9.938;2022-10-22T08:11:27;13.00;99.90
698;DHT22;331;48.414;9.938;2022-10-22T08:13:55;13.00;99.90
698;DHT22;331;48.414;9.938;2022-10-22T08:16:22;13.00;99.90
698;DHT22;331;48.414;9.938;2022-10-22T08:18:49;13.00;99.90
698;DHT22;331;48.414;9.938;2022-10-22T08:21:17;13.00;99.90
698;DHT22;331;48.414;9.938;2022-10-22T08:23:44;13.00;99.90
698;DHT22;331;48.414;9.938;2022-10-22T08:26:11;13.00;99.90
698;DHT22;331;48.414;9.938;2022-10-22T08:28:38;13.10;99.90
698;DHT22;331;48.414;9.938;2022-10-22T08:31:05;13.00;99.90
698;DHT22;331;48.414;9.938;2022-10-22T08:33:32;13.00;99.90
698;DHT22;331;48.414;9.938;2022-10-22T08:35:59;13.00;99.90
698;DHT22;331;48.414;9.938;2022-10-22T08:38:27;13.00;99.90
698;DHT22;331;48.414;9.938;2022-10-22T08:40:56;13.00;99.90
698;DHT22;331;48.414;9.938;2022-10-22T08:43:33;13.00;99.90
698;DHT22;331;48.414;9.938;2022-10-22T08:46:04;13.10;99.90
698;DHT22;331;48.414;9.938;2022-10-22T08:48:39;13.00;99.90
698;DHT22;331;48.414;9.938;2022-10-22T08:51:07;13.00;99.90
698;DHT22;331;48.414;9.938;2022-10-22T08:53:40;13.10;99.90
698;DHT22;331;48.414;9.938;2022-10-22T08:56:08;13.00;99.90
698;DHT22;331;48.414;9.938;2022-10-22T08:58:37;13.10;99.90
698;DHT22;331;48.414;9.938;2022-10-22T09:01:06;13.00;99.90
698;DHT22;331;48.414;9.938;2022-10-22T09:03:41;13.10;99.90
698;DHT22;331;48.414;9.938;2022-10-22T09:06:12;13.10;99.90
698;DHT22;331;48.414;9.938;2022-10-22T09:08:41;13.10;99.90
698;DHT22;331;48.414;9.938;2022-10-22T09:11:13;13.10;99.90
698;DHT22;331;48.414;9.938;2022-10-22T09:13:42;13.10;99.90
698;DHT22;331;48.414;9.938;2022-10-22T09:16:14;13.10;99.90
698;DHT22;331;48.414;9.938;2022-10-22T09:18:42;13.10;99.90
698;DHT22;331;48.414;9.938;2022-10-22T09:21:13;13.20;99.90
698;DHT22;331;48.414;9.938;2022-10-22T09:23:48;13.20;99.90
698;DHT22;331;48.414;9.938;2022-10-22T09:26:17;13.20;99.90
698;DHT22;331;48.414;9.938;2022-10-22T09:28:47;13.20;99.90
698;DHT22;331;48.414;9.938;2022-10-22T09:31:15;13.20;99.90
698;DHT22;331;48.414;9.938;2022-10-22T09:33:43;13.20;99.90
698;DHT22;331;48.414;9.938;2022-10-22T09:36:12;13.20;99.90
698;DHT22;331;48.414;9.938;2022-10-22T09:38:40;13.20;99.90
698;DHT22;331;48.414;9.938;2022-10-22T09:41:12;13.20;99.90
698;DHT22;331;48.414;9.938;2022-10-22T09:43:38;13.20;99.90
698;DHT22;331;48.414;9.938;2022-10-22T09:46:07;13.30;99.90
698;DHT22;331;48.414;9.938;2022-10-22T09:48:34;13.30;99.90
698;DHT22;331;48.414;9.938;2022-10-22T09:51:12;13.30;99.90
698;DHT22;331;48.414;9.938;2022-10-22T09:53:41;13.30;99.90
698;DHT22;331;48.414;9.938;2022-10-22T09:56:09;13.30;99.90
698;DHT22;331;48.414;9.938;2022-10-22T09:58:44;13.30;99.90
698;DHT22;331;48.414;9.938;2022-10-22T10:01:17;13.30;99.90
698;DHT22;331;48.414;9.938;2022-10-22T10:03:44;13.30;99.90
698;DHT22;331;48.414;9.938;2022-10-22T10:06:16;13.30;99.90
698;DHT22;331;48.414;9.938;2022-10-22T10:08:43;13.30;99.90
698;DHT22;331;48.414;9.938;2022-10-22T10:11:10;13.30;99.90
698;DHT22;331;48.414;9.938;2022-10-22T10:13:45;13.40;99.90
698;DHT22;331;48.414;9.938;2022-10-22T10:16:18;13.40;99.90
698;DHT22;331;48.414;9.938;2022-10-22T10:18:53;13.40;99.90
698;DHT22;331;48.414;9.938;2022-10-22T10:21:24;13.40;99.90
698;DHT22;331;48.414;9.938;2022-10-22T10:23:55;13.40;99.90
698;DHT22;331;48.414;9.938;2022-10-22T10:26:25;13.40;99.90
698;DHT22;331;48.414;9.938;2022-10-22T10:28:58;13.40;99.90
698;DHT22;331;48.414;9.938;2022-10-22T10:31:32;13.40;99.90
698;DHT22;331;48.414;9.938;2022-10-22T10:34:03;13.50;99.90
698;DHT22;331;48.414;9.938;2022-10-22T10:36:38;13.50;99.90
698;DHT22;331;48.414;9.938;2022-10-22T10:39:07;13.50;99.90
698;DHT22;331;48.414;9.938;2022-10-22T10:41:42;13.50;99.90
698;DHT22;331;48.414;9.938;2022-10-22T10:44:19;13.50;99.90
698;DHT22;331;48.414;9.938;2022-10-22T10:46:49;13.60;99.90
698;DHT22;331;48.414;9.938;2022-10-22T10:49:19;13.60;99.90
698;DHT22;331;48.414;9.938;2022-10-22T10:51:48;13.60;99.90
698;DHT22;331;48.414;9.938;2022-10-22T10:54:22;13.60;99.90
698;DHT22;331;48.414;9.938;2022-10-22T10:56:52;13.60;99.90
698;DHT22;331;48.414;9.938;2022-10-22T10:59:24;13.60;99.90
698;DHT22;331;48.414;9.938;2022-10-22T11:02:11;13.60;99.90
698;DHT22;331;48.414;9.938;2022-10-22T11:04:46;13.60;99.90
698;DHT22;331;48.414;9.938;2022-10-22T11:07:17;13.70;99.90
698;DHT22;331;48.414;9.938;2022-10-22T11:09:46;13.70;99.90
698;DHT22;331;48.414;9.938;2022-10-22T11:12:14;13.70;99.90
698;DHT22;331;48.414;9.938;2022-10-22T11:14:47;13.70;99.90
698;DHT22;331;48.414;9.938;2022-10-22T11:17:17;13.70;99.90
698;DHT22;331;48.414;9.938;2022-10-22T11:19:47;13.70;99.90
698;DHT22;331;48.414;9.938;2022-10-22T11:22:18;13.80;99.90
698;DHT22;331;48.414;9.938;2022-10-22T11:24:48;13.80;99.90
698;DHT22;331;48.414;9.938;2022-10-22T11:27:21;13.80;99.90
698;DHT22;331;48.414;9.938;2022-10-22T11:29:53;13.80;99.90
698;DHT22;331;48.414;9.938;2022-10-22T11:32:21;13.80;99.90
698;DHT22;331;48.414;9.938;2022-10-22T11:34:52;13.90;99.90
698;DHT22;331;48.414;9.938;2022-10-22T11:37:20;13.90;99.90
698;DHT22;331;48.414;9.938;2022-10-22T11:39:48;13.90;99.90
698;DHT22;331;48.414;9.938;2022-10-22T11:42:18;13.90;99.90
698;DHT22;331;48.414;9.938;2022-10-22T11:44:45;13.90;99.90
698;DHT22;331;48.414;9.938;2022-10-22T11:47:16;14.00;99.90
698;DHT22;331;48.414;9.938;2022-10-22T11:49:43;14.00;99.90
698;DHT22;331;48.414;9.938;2022-10-22T11:52:24;14.00;99.90
698;DHT22;331;48.414;9.938;2022-10-22T11:54:53;14.00;99.90
698;DHT22;331;48.414;9.938;2022-10-22T11:57:21;14.10;99.90
698;DHT22;331;48.414;9.938;2022-10-22T11:59:52;14.10;99.90
698;DHT22;331;48.414;9.938;2022-10-22T12:02:27;14.20;99.90
698;DHT22;331;48.414;9.938;2022-10-22T12:07:47;15.20;99.90
698;DHT22;331;48.414;9.938;2022-10-22T12:10:16;15.30;99.90
698;DHT22;331;48.414;9.938;2022-10-22T12:12:44;15.60;99.90
698;DHT22;331;48.414;9.938;2022-10-22T12:15:20;15.80;99.90
698;DHT22;331;48.414;9.938;2022-10-22T12:17:50;15.60;99.90
698;DHT22;331;48.414;9.938;2022-10-22T12:20:22;15.50;99.90
698;DHT22;331;48.414;9.938;2022-10-22T12:22:50;15.30;99.90
698;DHT22;331;48.414;9.938;2022-10-22T12:25:18;15.20;99.90
698;DHT22;331;48.414;9.938;2022-10-22T12:27:49;15.10;99.90
698;DHT22;331;48.414;9.938;2022-10-22T12:30:17;15.10;99.90
698;DHT22;331;48.414;9.938;2022-10-22T12:32:45;15.10;99.90
698;DHT22;331;48.414;9.938;2022-10-22T12:35:15;15.00;99.90
698;DHT22;331;48.414;9.938;2022-10-22T12:37:42;15.00;99.90
698;DHT22;331;48.414;9.938;2022-10-22T12:40:16;15.00;99.90
698;DHT22;331;48.414;9.938;2022-10-22T12:42:46;15.00;99.90
698;DHT22;331;48.414;9.938;2022-10-22T12:45:13;15.00;99.90
698;DHT22;331;48.414;9.938;2022-10-22T12:47:43;15.00;99.90
698;DHT22;331;48.414;9.938;2022-10-22T12:50:14;15.00;99.90
698;DHT22;331;48.414;9.938;2022-10-22T12:52:42;15.00;99.90
698;DHT22;331;48.414;9.938;2022-10-22T12:55:13;15.00;99.90
698;DHT22;331;48.414;9.938;2022-10-22T12:57:40;15.00;99.90
698;DHT22;331;48.414;9.938;2022-10-22T13:00:18;15.00;99.90
698;DHT22;331;48.414;9.938;2022-10-22T13:02:47;15.00;99.90
698;DHT22;331;48.414;9.938;2022-10-22T13:05:19;15.10;99.90
698;DHT22;331;48.414;9.938;2022-10-22T13:07:47;15.10;99.90
698;DHT22;331;48.414;9.938;2022-10-22T13:10:17;15.10;99.90
698;DHT22;331;48.414;9.938;2022-10-22T13:12:47;15.10;99.90
698;DHT22;331;48.414;9.938;2022-10-22T13:15:18;15.20;99.90
698;DHT22;331;48.414;9.938;2022-10-22T13:17:45;15.20;99.90
698;DHT22;331;48.414;9.938;2022-10-22T13:20:18;15.20;99.90
698;DHT22;331;48.414;9.938;2022-10-22T13:22:53;15.30;99.90
698;DHT22;331;48.414;9.938;2022-10-22T13:25:21;15.30;99.90
698;DHT22;331;48.414;9.938;2022-10-22T13:27:49;15.30;99.90
698;DHT22;331;48.414;9.938;2022-10-22T13:30:18;15.30;99.90
698;DHT22;331;48.414;9.938;2022-10-22T13:32:48;15.40;99.90
698;DHT22;331;48.414;9.938;2022-10-22T13:35:15;15.40;99.90
698;DHT22;331;48.414;9.938;2022-10-22T13:37:44;15.40;99.90
698;DHT22;331;48.414;9.938;2022-10-22T13:40:11;15.50;99.90
698;DHT22;331;48.414;9.938;2022-10-22T13:42:38;15.50;99.90
698;DHT22;331;48.414;9.938;2022-10-22T13:45:05;15.50;99.90
698;DHT22;331;48.414;9.938;2022-10-22T13:47:32;15.50;99.90
698;DHT22;331;48.414;9.938;2022-10-22T13:49:59;15.60;99.90
698;DHT22;331;48.414;9.938;2022-10-22T13:52:28;15.60;99.90
698;DHT22;331;48.414;9.938;2022-10-22T13:54:58;15.60;99.90
698;DHT22;331;48.414;9.938;2022-10-22T13:57:25;15.70;99.90
698;DHT22;331;48.414;9.938;2022-10-22T13:59:51;15.70;99.90
698;DHT22;331;48.414;9.938;2022-10-22T14:02:18;15.70;99.90
698;DHT22;331;48.414;9.938;2022-10-22T14:04:49;15.70;99.90
698;DHT22;331;48.414;9.938;2022-10-22T14:07:16;15.70;99.90
698;DHT22;331;48.414;9.938;2022-10-22T14:09:43;15.70;99.90
698;DHT22;331;48.414;9.938;2022-10-22T14:12:12;15.70;99.90
698;DHT22;331;48.414;9.938;2022-10-22T14:14:39;15.70;99.90
698;DHT22;331;48.414;9.938;2022-10-22T14:17:08;15.80;99.90
698;DHT22;331;48.414;9.938;2022-10-22T14:19:36;15.80;99.90
698;DHT22;331;48.414;9.938;2022-10-22T14:22:03;15.80;99.90
698;DHT22;331;48.414;9.938;2022-10-22T14:24:30;15.80;99.90
698;DHT22;331;48.414;9.938;2022-10-22T14:26:57;15.90;99.90
698;DHT22;331;48.414;9.938;2022-10-22T14:29:25;15.90;99.90
698;DHT22;331;48.414;9.938;2022-10-22T14:31:52;15.90;99.90
698;DHT22;331;48.414;9.938;2022-10-22T14:34:18;15.90;99.90
698;DHT22;331;48.414;9.938;2022-10-22T14:36:45;15.90;99.90
698;DHT22;331;48.414;9.938;2022-10-22T14:39:12;15.90;99.90
698;DHT22;331;48.414;9.938;2022-10-22T14:41:39;15.90;99.90
698;DHT22;331;48.414;9.938;2022-10-22T14:44:07;15.90;99.90
698;DHT22;331;48.414;9.938;2022-10-22T14:46:38;15.90;99.90
698;DHT22;331;48.414;9.938;2022-10-22T14:49:07;15.90;99.90
698;DHT22;331;48.414;9.938;2022-10-22T14:51:33;15.90;99.90
698;DHT22;331;48.414;9.938;2022-10-22T14:54:00;16.00;99.90
698;DHT22;331;48.414;9.938;2022-10-22T14:56:27;16.00;99.90
698;DHT22;331;48.414;9.938;2022-10-22T14:58:54;16.00;99.90
698;DHT22;331;48.414;9.938;2022-10-22T15:01:20;16.00;99.90
698;DHT22;331;48.414;9.938;2022-10-22T15:03:49;16.00;99.90
698;DHT22;331;48.414;9.938;2022-10-22T15:06:15;16.00;99.90
698;DHT22;331;48.414;9.938;2022-10-22T15:08:43;16.10;99.90
698;DHT22;331;48.414;9.938;2022-10-22T15:11:10;16.10;99.90
698;DHT22;331;48.414;9.938;2022-10-22T15:13:37;16.00;99.90
698;DHT22;331;48.414;9.938;2022-10-22T15:16:06;16.10;99.90
698;DHT22;331;48.414;9.938;2022-10-22T15:18:33;16.10;99.90
698;DHT22;331;48.414;9.938;2022-10-22T15:21:02;16.10;99.90
698;DHT22;331;48.414;9.938;2022-10-22T15:23:29;16.10;99.90
698;DHT22;331;48.414;9.938;2022-10-22T15:25:56;16.10;99.90
698;DHT22;331;48.414;9.938;2022-10-22T15:28:23;16.10;99.90
698;DHT22;331;48.414;9.938;2022-10-22T15:30:51;16.10;99.90
698;DHT22;331;48.414;9.938;2022-10-22T15:33:18;16.20;99.90
698;DHT22;331;48.414;9.938;2022-10-22T15:35:45;16.10;99.90
698;DHT22;331;48.414;9.938;2022-10-22T15:38:13;16.20;99.90
698;DHT22;331;48.414;9.938;2022-10-22T15:40:40;16.10;99.90
698;DHT22;331;48.414;9.938;2022-10-22T15:43:07;16.20;99.90
698;DHT22;331;48.414;9.938;2022-10-22T15:45:34;16.20;99.90
698;DHT22;331;48.414;9.938;2022-10-22T15:48:01;16.20;99.90
698;DHT22;331;48.414;9.938;2022-10-22T15:50:27;16.20;99.90
698;DHT22;331;48.414;9.938;2022-10-22T15:52:55;16.20;99.90
698;DHT22;331;48.414;9.938;2022-10-22T15:55:23;16.20;99.90
698;DHT22;331;48.414;9.938;2022-10-22T15:57:52;16.20;99.90
698;DHT22;331;48.414;9.938;2022-10-22T16:00:20;16.20;99.90
698;DHT22;331;48.414;9.938;2022-10-22T16:02:47;16.20;99.90
698;DHT22;331;48.414;9.938;2022-10-22T16:05:14;16.20;99.90
698;DHT22;331;48.414;9.938;2022-10-22T16:07:41;16.20;99.90
698;DHT22;331;48.414;9.938;2022-10-22T16:10:07;16.20;99.90
698;DHT22;331;48.414;9.938;2022-10-22T16:12:38;16.20;99.90
698;DHT22;331;48.414;9.938;2022-10-22T16:15:07;16.20;99.90
698;DHT22;331;48.414;9.938;2022-10-22T16:17:34;16.10;99.90
698;DHT22;331;48.414;9.938;2022-10-22T16:20:01;16.20;99.90
698;DHT22;331;48.414;9.938;2022-10-22T16:22:28;16.20;99.90
698;DHT22;331;48.414;9.938;2022-10-22T16:24:54;16.20;99.90
698;DHT22;331;48.414;9.938;2022-10-22T16:27:21;16.20;99.90
698;DHT22;331;48.414;9.938;2022-10-22T16:29:50;16.20;99.90
698;DHT22;331;48.414;9.938;2022-10-22T16:32:17;16.10;99.90
698;DHT22;331;48.414;9.938;2022-10-22T16:34:43;16.10;99.90
698;DHT22;331;48.414;9.938;2022-10-22T16:37:10;16.10;99.90
698;DHT22;331;48.414;9.938;2022-10-22T16:39:37;16.10;99.90
698;DHT22;331;48.414;9.938;2022-10-22T16:42:04;16.10;99.90
698;DHT22;331;48.414;9.938;2022-10-22T16:44:31;16.10;99.90
698;DHT22;331;48.414;9.938;2022-10-22T16:46:59;16.10;99.90